Terminal Aerodrome Forecast
Issued by NWS Twin Cities, MN

Home | Current Version | Previous Version | Graphics & Text | Print | Product List | Glossary On
Versions: 1 2 3 4 5 6 7 8 9 10 11 12 13 14 15 16 17 18 19 20
000
FTUS43 KMPX 062102 AAB
TAFSTC
TAF AMD
KSTC 062102Z 0621/0718 12012G20KT P6SM SCT015 BKN120
      TEMPO 0622/0624 4SM -RA BR SCT020 OVC050
     FM070200 14013G20KT P6SM OVC040
     FM070800 16014G22KT 4SM -RA BR SCT020 OVC040 PROB30 0708/0714
      2SM TSRA BR BKN025CB
     FM071400 19015G24KT 6SM -RA BR BKN020=

USA.gov is the U.S. government's official web portal to all federal, state and local government web resources and services.